createdAt,value
2023-03-24T00:00:30.393Z,24.63
2023-03-24T00:02:35.454Z,24.62
2023-03-24T00:04:40.830Z,24.62
2023-03-24T00:06:46.090Z,24.61
2023-03-24T00:08:51.106Z,24.62
2023-03-24T00:10:56.194Z,24.6
2023-03-24T00:13:01.253Z,24.61
2023-03-24T00:15:06.324Z,24.59
2023-03-24T00:17:11.412Z,24.59
2023-03-24T00:19:16.597Z,24.58
2023-03-24T00:21:21.806Z,24.59
2023-03-24T00:23:26.764Z,24.59
2023-03-24T00:25:32.021Z,24.57
2023-03-24T00:27:36.991Z,24.57
2023-03-24T00:29:42.110Z,24.6
2023-03-24T00:31:47.053Z,24.6
2023-03-24T00:33:52.073Z,24.59
2023-03-24T00:35:57.153Z,24.6
2023-03-24T00:38:02.354Z,24.57
2023-03-24T00:40:07.320Z,24.55
2023-03-24T00:42:12.328Z,24.54
2023-03-24T00:44:17.427Z,24.54
2023-03-24T00:46:22.648Z,24.56
2023-03-24T00:48:27.866Z,24.55
2023-03-24T00:50:32.923Z,24.56
2023-03-24T00:52:37.951Z,24.55
2023-03-24T00:54:43.055Z,24.53
2023-03-24T00:56:48.107Z,24.51
2023-03-24T00:58:53.237Z,24.52
2023-03-24T01:00:58.316Z,24.54
2023-03-24T01:03:03.661Z,24.53
2023-03-24T01:05:08.861Z,24.54
2023-03-24T01:07:13.942Z,24.54
2023-03-24T01:09:18.942Z,24.54
2023-03-24T01:11:23.985Z,24.53
2023-03-24T01:13:29.177Z,24.52
2023-03-24T01:15:34.164Z,24.52
2023-03-24T01:17:39.213Z,24.52
2023-03-24T01:19:44.368Z,24.51
2023-03-24T01:21:49.389Z,24.5
2023-03-24T01:23:54.376Z,24.5
2023-03-24T01:25:59.350Z,24.47
2023-03-24T01:28:04.420Z,24.48
2023-03-24T01:30:09.385Z,24.47
2023-03-24T01:32:14.381Z,24.45
2023-03-24T01:34:19.334Z,24.46
2023-03-24T01:36:24.319Z,24.46
2023-03-24T01:38:29.311Z,24.44
2023-03-24T01:40:34.433Z,24.46
2023-03-24T01:42:39.433Z,24.46
2023-03-24T01:44:44.547Z,24.46
2023-03-24T01:46:49.558Z,24.46
2023-03-24T01:48:54.590Z,24.44
2023-03-24T01:50:59.609Z,24.43
2023-03-24T01:53:04.632Z,24.44
2023-03-24T01:55:09.681Z,24.43
2023-03-24T01:57:14.688Z,24.42
2023-03-24T01:59:19.652Z,24.42
2023-03-24T02:01:24.630Z,24.41
2023-03-24T02:03:29.820Z,24.41
2023-03-24T02:05:34.786Z,24.41
2023-03-24T02:07:39.875Z,24.39
2023-03-24T02:09:44.837Z,24.39
2023-03-24T02:11:49.823Z,24.39
2023-03-24T02:13:54.834Z,24.4
2023-03-24T02:15:59.870Z,24.39
2023-03-24T02:18:05.141Z,24.39
2023-03-24T02:20:10.364Z,24.39
2023-03-24T02:22:15.404Z,24.39
2023-03-24T02:24:20.420Z,24.39
2023-03-24T02:26:25.362Z,24.39
2023-03-24T02:28:30.401Z,24.39
2023-03-24T02:30:35.478Z,24.4
2023-03-24T02:32:40.481Z,24.39
2023-03-24T02:34:45.616Z,24.39
2023-03-24T02:36:50.616Z,24.38
2023-03-24T02:38:55.573Z,24.39
2023-03-24T02:41:00.556Z,24.39
2023-03-24T02:43:05.577Z,24.38
2023-03-24T02:45:10.729Z,24.38
2023-03-24T02:47:15.708Z,24.37
2023-03-24T02:49:20.691Z,24.36
2023-03-24T02:51:25.696Z,24.36
2023-03-24T02:53:30.677Z,24.35
2023-03-24T02:55:35.652Z,24.35
2023-03-24T02:58:49.874Z,24.31
2023-03-24T03:00:54.879Z,24.35
2023-03-24T03:02:59.883Z,24.34
2023-03-24T03:05:05.020Z,24.35
2023-03-24T03:07:10.168Z,24.34
2023-03-24T03:09:15.219Z,24.35
2023-03-24T03:11:20.262Z,24.34
2023-03-24T03:13:25.234Z,24.34
2023-03-24T03:15:30.227Z,24.33
2023-03-24T03:17:35.481Z,24.34
2023-03-24T03:19:40.701Z,24.35
2023-03-24T03:21:45.708Z,24.35
2023-03-24T03:23:50.676Z,24.35
2023-03-24T03:25:55.659Z,24.34
2023-03-24T03:28:00.659Z,24.33
2023-03-24T03:30:05.627Z,24.33
2023-03-24T03:32:10.610Z,24.33
2023-03-24T03:34:15.637Z,24.34
2023-03-24T03:36:20.644Z,24.35
2023-03-24T03:38:25.825Z,24.34
2023-03-24T03:40:30.776Z,24.34
2023-03-24T03:42:35.801Z,24.34
2023-03-24T03:44:40.800Z,24.34
2023-03-24T03:46:45.795Z,24.34
2023-03-24T03:48:50.809Z,24.33
2023-03-24T03:51:06.491Z,24.32
2023-03-24T03:53:18.434Z,24.3
2023-03-24T03:55:23.461Z,24.3
2023-03-24T03:57:28.454Z,24.31
2023-03-24T03:59:33.489Z,24.3
2023-03-24T04:01:38.558Z,24.31
2023-03-24T04:03:43.714Z,24.3
2023-03-24T04:05:48.957Z,24.3
2023-03-24T04:07:53.960Z,24.3
2023-03-24T04:09:58.887Z,24.28
2023-03-24T04:12:03.996Z,24.28
2023-03-24T04:14:08.977Z,24.26
2023-03-24T04:16:14.011Z,24.26
2023-03-24T04:18:19.171Z,24.25
2023-03-24T04:20:24.172Z,24.25
2023-03-24T04:22:29.162Z,24.24
2023-03-24T04:24:34.197Z,24.24
2023-03-24T04:26:39.174Z,24.24
2023-03-24T04:28:44.138Z,24.25
2023-03-24T04:30:49.130Z,24.24
2023-03-24T04:32:54.179Z,24.24
2023-03-24T04:34:59.345Z,24.23
2023-03-24T04:37:04.586Z,24.22
2023-03-24T04:39:09.573Z,24.21
2023-03-24T04:41:14.757Z,24.22
2023-03-24T04:43:20.793Z,24.21
2023-03-24T04:45:25.817Z,24.19
2023-03-24T04:47:31.054Z,24.18
2023-03-24T04:49:36.284Z,24.18
2023-03-24T04:51:41.399Z,24.18
2023-03-24T04:53:46.364Z,24.18
2023-03-24T04:55:51.352Z,24.19
2023-03-24T04:57:56.487Z,24.18
2023-03-24T05:00:01.515Z,24.18
2023-03-24T05:02:06.510Z,24.17
2023-03-24T05:04:11.555Z,24.17
2023-03-24T05:06:16.694Z,24.17
2023-03-24T05:08:21.700Z,24.18
2023-03-24T05:10:26.674Z,24.16
2023-03-24T05:12:31.678Z,24.16
2023-03-24T05:14:36.684Z,24.16
2023-03-24T05:16:41.706Z,24.16
2023-03-24T05:18:46.949Z,24.15
2023-03-24T05:20:51.943Z,24.13
2023-03-24T05:22:56.932Z,24.13
2023-03-24T05:25:01.917Z,24.13
2023-03-24T05:27:06.917Z,24.14
2023-03-24T05:29:11.887Z,24.14
2023-03-24T05:31:16.914Z,24.12
2023-03-24T05:33:22.153Z,24.12
2023-03-24T05:35:27.432Z,24.12
2023-03-24T05:37:32.447Z,24.12
2023-03-24T05:39:37.472Z,24.11
2023-03-24T05:41:42.488Z,24.12
2023-03-24T05:43:47.500Z,24.13
2023-03-24T05:45:52.706Z,24.13
2023-03-24T05:47:57.915Z,24.15
2023-03-24T05:50:03.026Z,24.13
2023-03-24T05:52:08.040Z,24.13
2023-03-24T05:54:13.047Z,24.14
2023-03-24T05:56:17.997Z,24.12
2023-03-24T05:58:23.015Z,24.12
2023-03-24T06:00:27.996Z,24.13
2023-03-24T06:02:33.032Z,24.12
2023-03-24T06:04:38.346Z,24.14
2023-03-24T06:06:43.658Z,24.15
2023-03-24T06:08:48.674Z,24.17
2023-03-24T06:10:53.662Z,24.22
2023-03-24T06:12:58.671Z,24.25
2023-03-24T06:15:03.686Z,24.31
2023-03-24T06:17:08.735Z,24.33
2023-03-24T06:19:13.737Z,24.34
2023-03-24T06:21:18.703Z,24.38
2023-03-24T06:23:23.758Z,24.41
2023-03-24T06:25:28.908Z,24.45
2023-03-24T06:27:34.031Z,24.44
2023-03-24T06:29:39.034Z,24.47
2023-03-24T06:31:44.022Z,24.51
2023-03-24T06:33:49.068Z,24.55
2023-03-24T06:35:54.045Z,24.59
2023-03-24T06:37:59.293Z,24.61
2023-03-24T06:40:04.241Z,24.64
2023-03-24T06:42:09.256Z,24.67
2023-03-24T06:44:14.280Z,24.68
2023-03-24T06:46:19.273Z,24.7
2023-03-24T06:48:24.343Z,24.71
2023-03-24T06:50:29.352Z,24.71
2023-03-24T06:52:34.329Z,24.75
2023-03-24T06:54:40.581Z,24.77
2023-03-24T06:56:46.651Z,24.8
2023-03-24T06:58:51.673Z,24.83
2023-03-24T07:00:56.593Z,24.87
2023-03-24T07:03:01.630Z,24.89
2023-03-24T07:05:06.897Z,24.92
2023-03-24T07:07:38.517Z,24.96
2023-03-24T07:10:41.357Z,24.99
2023-03-24T07:12:46.867Z,24.99
2023-03-24T07:14:51.825Z,24.99
2023-03-24T07:16:56.870Z,24.93
2023-03-24T07:19:01.946Z,24.9
2023-03-24T07:21:07.022Z,24.9
2023-03-24T07:23:12.045Z,24.9
2023-03-24T07:25:17.100Z,24.88
2023-03-24T07:27:22.151Z,24.88
2023-03-24T07:29:27.188Z,24.88
2023-03-24T07:31:32.303Z,24.91
2023-03-24T07:33:37.402Z,24.91
2023-03-24T07:35:42.661Z,24.94
2023-03-24T07:37:48.583Z,24.93
2023-03-24T07:39:53.471Z,24.96
2023-03-24T07:41:58.389Z,24.99
2023-03-24T07:44:03.295Z,25.02
2023-03-24T07:46:09.329Z,25.05
2023-03-24T07:48:15.445Z,25.05
2023-03-24T07:50:20.464Z,25.05
2023-03-24T07:52:25.454Z,25.07
2023-03-24T07:54:30.466Z,25.05
2023-03-24T07:56:35.488Z,25.03
2023-03-24T07:58:40.667Z,25.01
2023-03-24T08:00:45.677Z,25
2023-03-24T08:02:51.426Z,24.98
2023-03-24T08:04:57.462Z,24.98
2023-03-24T08:07:02.496Z,24.97
2023-03-24T08:09:07.479Z,24.95
2023-03-24T08:11:12.566Z,24.94
2023-03-24T08:13:17.543Z,24.95
2023-03-24T08:15:22.633Z,24.95
2023-03-24T08:17:27.685Z,24.95
2023-03-24T08:19:32.868Z,24.94
2023-03-24T08:21:42.990Z,24.94
2023-03-24T08:23:48.274Z,24.94
2023-03-24T08:25:53.364Z,24.95
2023-03-24T08:27:58.365Z,24.93
2023-03-24T08:30:03.459Z,24.93
2023-03-24T08:32:08.608Z,24.93
2023-03-24T08:34:13.603Z,24.9
2023-03-24T08:36:18.645Z,24.91
2023-03-24T08:38:23.804Z,24.91
2023-03-24T08:40:28.817Z,24.91
2023-03-24T08:42:33.884Z,24.9
2023-03-24T08:44:38.878Z,24.91
2023-03-24T08:46:44.247Z,24.92
2023-03-24T08:48:49.456Z,24.93
2023-03-24T08:50:54.439Z,24.9
2023-03-24T08:52:59.422Z,24.91
2023-03-24T08:55:04.449Z,24.91
2023-03-24T08:57:09.501Z,24.91
2023-03-24T08:59:14.640Z,24.91
2023-03-24T09:01:19.668Z,24.9
2023-03-24T09:03:24.917Z,24.9
2023-03-24T09:05:41.312Z,24.88
2023-03-24T09:07:59.663Z,24.9
2023-03-24T09:10:04.750Z,24.91
2023-03-24T09:12:09.811Z,24.93
2023-03-24T09:14:15.095Z,24.92
2023-03-24T09:16:20.133Z,24.93
2023-03-24T09:18:25.277Z,24.92
2023-03-24T09:20:30.276Z,24.94
2023-03-24T09:22:35.360Z,24.93
2023-03-24T09:24:40.407Z,24.93
2023-03-24T09:26:45.380Z,24.93
2023-03-24T09:28:50.406Z,24.94
2023-03-24T09:30:55.445Z,24.93
2023-03-24T09:33:00.658Z,24.94
2023-03-24T09:35:06.060Z,24.94
2023-03-24T09:37:11.080Z,24.96
2023-03-24T09:39:16.256Z,24.93
2023-03-24T09:41:23.928Z,24.95
2023-03-24T09:43:29.022Z,24.94
2023-03-24T09:45:34.051Z,24.93
2023-03-24T09:47:39.195Z,24.93
2023-03-24T09:49:44.342Z,24.94
2023-03-24T09:51:49.419Z,24.93
2023-03-24T09:53:54.451Z,24.95
2023-03-24T09:55:59.616Z,24.94
2023-03-24T09:58:04.619Z,24.94
2023-03-24T10:00:09.651Z,24.94
2023-03-24T10:02:14.678Z,24.95
2023-03-24T10:04:19.821Z,24.96
2023-03-24T10:06:24.989Z,24.94
2023-03-24T10:08:31.519Z,24.95
2023-03-24T10:10:36.980Z,24.94
2023-03-24T10:12:42.001Z,24.93
2023-03-24T10:14:47.008Z,24.93
2023-03-24T10:16:52.005Z,24.94
2023-03-24T10:18:57.151Z,24.96
2023-03-24T10:21:02.186Z,24.99
2023-03-24T10:23:07.158Z,24.98
2023-03-24T10:25:12.204Z,24.98
2023-03-24T10:27:17.375Z,24.98
2023-03-24T10:29:22.414Z,24.99
2023-03-24T10:31:27.549Z,25
2023-03-24T10:33:32.663Z,25.01
2023-03-24T10:35:37.850Z,25
2023-03-24T10:37:43.063Z,25.02
2023-03-24T10:39:48.092Z,25.02
2023-03-24T10:41:53.189Z,25.01
2023-03-24T10:43:58.258Z,25
2023-03-24T10:46:03.410Z,24.98
2023-03-24T10:48:08.633Z,24.98
2023-03-24T10:50:17.174Z,25
2023-03-24T10:52:22.354Z,24.99
2023-03-24T10:54:27.320Z,24.95
2023-03-24T10:56:32.379Z,24.97
2023-03-24T10:58:37.475Z,24.97
2023-03-24T11:00:42.788Z,25
2023-03-24T11:02:47.830Z,25
2023-03-24T11:04:53.076Z,25.02
2023-03-24T11:06:58.128Z,25
2023-03-24T11:09:05.518Z,24.98
2023-03-24T11:11:10.523Z,24.98
2023-03-24T11:13:16.812Z,24.99
2023-03-24T11:15:23.580Z,25
2023-03-24T11:17:28.973Z,24.96
2023-03-24T11:19:34.123Z,24.97
2023-03-24T11:21:39.200Z,24.97
2023-03-24T11:23:44.198Z,24.97
2023-03-24T11:25:49.294Z,24.98
2023-03-24T11:27:54.689Z,24.99
2023-03-24T11:29:59.706Z,24.97
2023-03-24T11:32:04.866Z,24.94
2023-03-24T11:34:09.853Z,24.9
2023-03-24T11:36:14.882Z,24.93
2023-03-24T11:38:19.977Z,24.94
2023-03-24T11:40:24.990Z,24.92
2023-03-24T11:42:30.010Z,24.95
2023-03-24T11:44:35.093Z,24.94
2023-03-24T11:46:40.591Z,24.99
2023-03-24T11:48:45.773Z,25
2023-03-24T11:50:50.798Z,25
2023-03-24T11:52:55.831Z,24.99
2023-03-24T11:55:00.944Z,24.97
2023-03-24T11:57:06.075Z,24.98
2023-03-24T11:59:11.395Z,24.98
2023-03-24T12:01:16.361Z,24.93
2023-03-24T12:03:21.472Z,24.95
2023-03-24T12:05:26.973Z,24.93
2023-03-24T12:07:32.100Z,24.9
2023-03-24T12:09:37.158Z,24.93
2023-03-24T12:11:42.276Z,24.97
2023-03-24T12:13:47.273Z,24.98
2023-03-24T12:15:52.333Z,24.99
2023-03-24T12:17:57.534Z,25
2023-03-24T12:20:02.660Z,24.99
2023-03-24T12:22:07.686Z,24.98
2023-03-24T12:24:12.695Z,24.95
2023-03-24T12:26:17.694Z,24.89
2023-03-24T12:28:22.739Z,24.92
2023-03-24T12:30:27.708Z,24.91
2023-03-24T12:32:32.808Z,24.88
2023-03-24T12:34:37.976Z,24.84
2023-03-24T12:36:42.984Z,24.85
2023-03-24T12:38:47.981Z,24.87
2023-03-24T12:40:53.006Z,24.88
2023-03-24T12:42:58.080Z,24.86
2023-03-24T12:45:03.381Z,24.82
2023-03-24T12:47:08.393Z,24.79
2023-03-24T12:49:13.401Z,24.73
2023-03-24T12:51:18.394Z,24.73
2023-03-24T12:53:23.427Z,24.72
2023-03-24T12:55:28.688Z,24.74
2023-03-24T12:57:33.712Z,24.79
2023-03-24T12:59:38.837Z,24.83
2023-03-24T13:01:43.967Z,24.85
2023-03-24T13:03:48.956Z,24.83
2023-03-24T13:05:54.711Z,24.82
2023-03-24T13:08:20.065Z,24.83
2023-03-24T13:10:25.088Z,24.85
2023-03-24T13:12:30.120Z,24.89
2023-03-24T13:14:35.203Z,24.89
2023-03-24T13:16:40.347Z,24.91
2023-03-24T13:18:45.498Z,24.9
2023-03-24T13:20:50.513Z,24.89
2023-03-24T13:22:55.532Z,24.89
2023-03-24T13:25:00.627Z,24.9
2023-03-24T13:27:05.794Z,24.89
2023-03-24T13:29:10.884Z,24.89
2023-03-24T13:31:15.937Z,24.87
2023-03-24T13:33:21.093Z,24.88
2023-03-24T13:35:26.094Z,24.89
2023-03-24T13:37:31.123Z,24.86
2023-03-24T13:39:36.149Z,24.85
2023-03-24T13:41:42.213Z,24.85
2023-03-24T13:43:48.346Z,24.82
2023-03-24T13:45:53.490Z,24.85
2023-03-24T13:47:58.604Z,24.86
2023-03-24T13:50:03.875Z,24.86
2023-03-24T13:52:08.857Z,24.82
2023-03-24T13:54:13.871Z,24.83
2023-03-24T13:56:19.035Z,24.8
2023-03-24T13:58:23.998Z,24.76
2023-03-24T14:00:29.223Z,24.8
2023-03-24T14:02:34.253Z,24.81
2023-03-24T14:04:39.462Z,24.78
2023-03-24T14:06:44.438Z,24.78
2023-03-24T14:08:49.425Z,24.78
2023-03-24T14:10:54.894Z,24.77
2023-03-24T14:12:59.968Z,24.79
2023-03-24T14:15:05.122Z,24.83
2023-03-24T14:17:10.293Z,24.86
2023-03-24T14:19:15.278Z,24.87
2023-03-24T14:21:20.350Z,24.87
2023-03-24T14:23:25.336Z,24.9
2023-03-24T14:25:30.344Z,24.91
2023-03-24T14:27:35.460Z,24.92
2023-03-24T14:29:40.486Z,24.91
2023-03-24T14:31:45.536Z,24.96
2023-03-24T14:33:50.778Z,24.95
2023-03-24T14:35:55.787Z,24.96
2023-03-24T14:38:01.242Z,24.96
2023-03-24T14:40:06.215Z,24.97
2023-03-24T14:42:11.244Z,25.01
2023-03-24T14:44:16.284Z,25.04
2023-03-24T14:46:21.287Z,24.94
2023-03-24T14:48:26.473Z,24.93
2023-03-24T14:50:31.466Z,24.91
2023-03-24T14:52:37.434Z,24.94
2023-03-24T14:54:44.157Z,24.95
2023-03-24T14:56:49.312Z,24.96
2023-03-24T14:58:54.755Z,24.94
2023-03-24T15:03:12.324Z,24.96
2023-03-24T15:05:17.590Z,24.96
2023-03-24T15:07:25.915Z,24.94
2023-03-24T15:09:31.085Z,24.95
2023-03-24T15:11:36.093Z,24.96
2023-03-24T15:13:41.152Z,24.95
2023-03-24T15:15:46.258Z,24.96
2023-03-24T15:17:51.488Z,24.98
2023-03-24T15:19:56.634Z,24.98
2023-03-24T15:22:01.663Z,24.96
2023-03-24T15:24:06.671Z,24.92
2023-03-24T15:26:11.651Z,24.91
2023-03-24T15:28:16.709Z,24.89
2023-03-24T15:30:21.664Z,24.91
2023-03-24T15:32:26.671Z,24.91
2023-03-24T15:34:31.921Z,24.9
2023-03-24T15:36:36.951Z,24.9
2023-03-24T15:38:42.059Z,24.87
2023-03-24T15:40:47.182Z,24.87
2023-03-24T15:42:52.799Z,24.73
2023-03-24T15:44:57.868Z,24.66
2023-03-24T15:47:02.969Z,24.62
2023-03-24T15:49:07.985Z,24.46
2023-03-24T15:51:13.093Z,24.34
2023-03-24T15:53:18.154Z,24.2
2023-03-24T15:55:23.136Z,24.07
2023-03-24T15:57:28.162Z,23.99
2023-03-24T15:59:33.165Z,23.93
2023-03-24T16:01:38.323Z,23.87
2023-03-24T16:03:46.685Z,23.8
2023-03-24T16:05:51.778Z,23.75
2023-03-24T16:07:56.747Z,23.67
2023-03-24T16:10:01.680Z,23.54
2023-03-24T16:12:06.670Z,23.47
2023-03-24T16:14:11.685Z,23.44
2023-03-24T16:16:16.739Z,23.44
2023-03-24T16:18:22.000Z,23.43
2023-03-24T16:20:27.020Z,23.5
2023-03-24T16:22:32.077Z,23.55
2023-03-24T16:24:37.086Z,23.59
2023-03-24T16:26:42.046Z,23.66
2023-03-24T16:28:47.120Z,23.71
2023-03-24T16:30:52.150Z,23.68
2023-03-24T16:32:57.440Z,23.67
2023-03-24T16:35:02.674Z,23.67
2023-03-24T16:37:07.693Z,23.66
2023-03-24T16:39:12.738Z,23.64
2023-03-24T16:41:17.859Z,23.6
2023-03-24T16:43:22.933Z,23.58
2023-03-24T16:45:28.169Z,23.55
2023-03-24T16:47:33.441Z,23.5
2023-03-24T16:49:38.815Z,23.48
2023-03-24T16:51:43.880Z,23.47
2023-03-24T16:53:48.903Z,23.49
2023-03-24T16:55:53.860Z,23.47
2023-03-24T16:57:58.843Z,23.47
2023-03-24T17:00:04.010Z,23.43
2023-03-24T17:02:09.129Z,23.41
2023-03-24T17:04:14.122Z,23.38
2023-03-24T17:06:19.189Z,23.35
2023-03-24T17:08:24.196Z,23.3
2023-03-24T17:10:29.290Z,23.26
2023-03-24T17:12:34.389Z,23.2
2023-03-24T17:14:39.490Z,23.2
2023-03-24T17:16:46.569Z,23.19
2023-03-24T17:18:51.604Z,23.17
2023-03-24T17:20:56.614Z,23.19
2023-03-24T17:23:01.613Z,23.29
2023-03-24T17:25:06.739Z,23.45
2023-03-24T17:27:11.874Z,23.57
2023-03-24T17:29:16.944Z,23.67
2023-03-24T17:31:21.977Z,23.76
2023-03-24T17:33:27.247Z,23.82
2023-03-24T17:35:32.242Z,23.89
2023-03-24T17:37:37.277Z,23.95
2023-03-24T17:39:42.304Z,24.05
2023-03-24T17:41:47.345Z,24.13
2023-03-24T17:43:52.443Z,24.23
2023-03-24T17:45:57.485Z,24.32
2023-03-24T17:48:02.552Z,24.38
2023-03-24T17:50:07.700Z,24.43
2023-03-24T17:52:12.892Z,24.47
2023-03-24T17:54:18.086Z,24.48
2023-03-24T17:56:23.151Z,24.49
2023-03-24T17:58:28.161Z,24.48
2023-03-24T18:00:33.399Z,24.52
2023-03-24T18:02:38.583Z,24.54
2023-03-24T18:04:43.848Z,24.55
2023-03-24T18:06:48.948Z,24.53
2023-03-24T18:08:53.946Z,24.53
2023-03-24T18:10:58.942Z,24.5
2023-03-24T18:13:04.270Z,24.51
2023-03-24T18:15:09.475Z,24.5
2023-03-24T18:17:14.646Z,24.5
2023-03-24T18:19:19.783Z,24.5
2023-03-24T18:21:24.862Z,24.51
2023-03-24T18:23:29.865Z,24.51
2023-03-24T18:25:35.022Z,24.47
2023-03-24T18:27:40.029Z,24.46
2023-03-24T18:29:45.398Z,24.45
2023-03-24T18:31:50.540Z,24.42
2023-03-24T18:33:55.819Z,24.41
2023-03-24T18:36:00.850Z,24.39
2023-03-24T18:38:05.931Z,24.35
2023-03-24T18:40:11.143Z,24.26
2023-03-24T18:42:16.150Z,24.18
2023-03-24T18:44:21.240Z,24.07
2023-03-24T18:46:26.351Z,24.06
2023-03-24T18:48:31.948Z,24.04
2023-03-24T18:50:37.205Z,24.05
2023-03-24T18:52:42.281Z,24.02
2023-03-24T18:54:47.336Z,23.98
2023-03-24T18:56:52.592Z,24.01
2023-03-24T18:58:57.861Z,23.99
2023-03-24T19:01:02.979Z,24.01
2023-03-24T19:03:08.166Z,24.12
2023-03-24T19:05:13.608Z,24.22
2023-03-24T19:07:18.650Z,24.33
2023-03-24T19:09:23.939Z,24.42
2023-03-24T19:11:29.010Z,24.5
2023-03-24T19:13:34.182Z,24.56
2023-03-24T19:15:39.214Z,24.6
2023-03-24T19:17:44.519Z,24.64
2023-03-24T19:19:49.761Z,24.65
2023-03-24T19:21:54.809Z,24.63
2023-03-24T19:23:59.849Z,24.64
2023-03-24T19:26:04.882Z,24.67
2023-03-24T19:28:09.981Z,24.67
2023-03-24T19:30:15.014Z,24.7
2023-03-24T19:32:19.990Z,24.72
2023-03-24T19:34:25.066Z,24.74
2023-03-24T19:36:30.071Z,24.75
2023-03-24T19:38:35.082Z,24.77
2023-03-24T19:40:40.222Z,24.81
2023-03-24T19:42:45.275Z,24.82
2023-03-24T19:44:50.348Z,24.85
2023-03-24T19:46:55.506Z,24.83
2023-03-24T19:49:00.590Z,24.82
2023-03-24T19:51:05.701Z,24.8
2023-03-24T19:53:10.940Z,24.77
2023-03-24T19:55:16.176Z,24.75
2023-03-24T19:57:21.315Z,24.75
2023-03-24T19:59:26.347Z,24.75
2023-03-24T20:01:31.431Z,24.75
2023-03-24T20:03:36.772Z,24.74
2023-03-24T20:05:42.709Z,24.81
2023-03-24T20:07:47.731Z,24.83
2023-03-24T20:09:52.756Z,24.88
2023-03-24T20:11:57.790Z,24.87
2023-03-24T20:14:02.854Z,24.9
2023-03-24T20:16:07.960Z,24.92
2023-03-24T20:18:13.190Z,24.93
2023-03-24T20:20:18.292Z,24.94
2023-03-24T20:22:23.407Z,24.96
2023-03-24T20:24:28.520Z,25
2023-03-24T20:26:33.535Z,25.01
2023-03-24T20:28:38.660Z,25.03
2023-03-24T20:30:43.909Z,25.04
2023-03-24T20:32:48.987Z,25.06
2023-03-24T20:34:54.244Z,25.06
2023-03-24T20:36:59.279Z,25.09
2023-03-24T20:39:04.329Z,25.09
2023-03-24T20:41:09.353Z,25.09
2023-03-24T20:43:14.443Z,25.08
2023-03-24T20:45:19.506Z,25.09
2023-03-24T20:47:24.596Z,25.08
2023-03-24T20:49:29.726Z,25.02
2023-03-24T20:51:34.809Z,24.95
2023-03-24T20:53:39.846Z,24.91
2023-03-24T20:55:44.941Z,24.89
2023-03-24T20:57:50.258Z,24.87
2023-03-24T20:59:55.244Z,24.85
2023-03-24T21:02:00.262Z,24.83
2023-03-24T21:04:09.191Z,24.82
2023-03-24T21:06:14.406Z,24.84
2023-03-24T21:08:19.426Z,24.87
2023-03-24T21:10:24.486Z,24.88
2023-03-24T21:12:29.546Z,24.83
2023-03-24T21:14:34.626Z,24.81
2023-03-24T21:16:39.780Z,24.76
2023-03-24T21:18:45.058Z,24.73
2023-03-24T21:20:50.114Z,24.72
2023-03-24T21:22:55.314Z,24.66
2023-03-24T21:25:00.420Z,24.61
2023-03-24T21:27:05.540Z,24.55
2023-03-24T21:29:10.554Z,24.48
2023-03-24T21:31:15.633Z,24.46
2023-03-24T21:33:20.857Z,24.43
2023-03-24T21:35:25.898Z,24.38
2023-03-24T21:37:30.939Z,24.37
2023-03-24T21:39:35.948Z,24.36
2023-03-24T21:41:40.983Z,24.34
2023-03-24T21:43:46.079Z,24.32
2023-03-24T21:45:51.163Z,24.3
2023-03-24T21:47:56.363Z,24.29
2023-03-24T21:50:01.580Z,24.27
2023-03-24T21:52:06.598Z,24.25
2023-03-24T21:54:11.924Z,24.23
2023-03-24T21:56:16.907Z,24.22
2023-03-24T21:58:21.894Z,24.21
2023-03-24T22:00:26.966Z,24.19
2023-03-24T22:02:31.968Z,24.15
2023-03-24T22:04:37.137Z,24.13
2023-03-24T22:06:42.177Z,24.11
2023-03-24T22:08:47.189Z,24.12
2023-03-24T22:10:52.267Z,24.12
2023-03-24T22:12:57.271Z,24.1
2023-03-24T22:15:02.337Z,24.11
2023-03-24T22:17:07.372Z,24.08
2023-03-24T22:19:12.562Z,24.08
2023-03-24T22:21:17.600Z,24.08
2023-03-24T22:23:22.817Z,24.07
2023-03-24T22:25:27.803Z,24.06
2023-03-24T22:27:32.845Z,24.06
2023-03-24T22:29:37.836Z,24.05
2023-03-24T22:31:42.851Z,24.04
2023-03-24T22:33:48.059Z,24.02
2023-03-24T22:35:53.294Z,24.03
2023-03-24T22:37:58.628Z,24.02
2023-03-24T22:40:03.666Z,24
2023-03-24T22:42:08.702Z,24.01
2023-03-24T22:44:13.714Z,24
2023-03-24T22:46:18.789Z,24.01
2023-03-24T22:48:23.895Z,23.97
2023-03-24T22:50:28.926Z,23.96
2023-03-24T22:52:33.907Z,23.94
2023-03-24T22:54:38.975Z,23.95
2023-03-24T22:56:44.029Z,23.94
2023-03-24T22:58:49.163Z,23.95
2023-03-24T23:00:54.274Z,23.94
2023-03-24T23:02:59.349Z,23.93
2023-03-24T23:05:04.486Z,23.91
2023-03-24T23:07:09.718Z,23.92
2023-03-24T23:09:14.765Z,23.9
2023-03-24T23:11:19.776Z,23.89
2023-03-24T23:13:24.778Z,23.89
2023-03-24T23:15:29.767Z,23.86
2023-03-24T23:17:34.948Z,23.86
2023-03-24T23:19:40.163Z,23.84
2023-03-24T23:21:45.156Z,23.84
2023-03-24T23:23:50.183Z,23.82
2023-03-24T23:25:55.160Z,23.83
2023-03-24T23:28:00.146Z,23.83
2023-03-24T23:30:05.264Z,23.82
2023-03-24T23:32:10.251Z,23.82
2023-03-24T23:34:15.532Z,23.81
2023-03-24T23:36:20.547Z,23.82
2023-03-24T23:38:25.677Z,23.8
2023-03-24T23:40:30.674Z,23.79
2023-03-24T23:42:35.820Z,23.78
2023-03-24T23:44:40.833Z,23.77
2023-03-24T23:46:45.912Z,23.74
2023-03-24T23:48:50.879Z,23.74
2023-03-24T23:50:55.965Z,23.75
2023-03-24T23:53:01.067Z,23.75
2023-03-24T23:55:06.044Z,23.72
2023-03-24T23:57:11.088Z,23.74
2023-03-24T23:59:16.259Z,23.72
